Accueil
METAR-TAF:

METAR-TAF

Aéroports :

Aéroport international de Xi'an Xianyang

Xi'an, Chine

latitude: 34-26N, longitude: 108-45E, altitude: 479 m

Observation

Le bulletin a été fait il y a 1 heure et 5 minutes, à 10:00 UTC
Vent 4 kt de sud-ouest
Température 17°C
Humidité 42%
Pression 1023 hPa
Visibilité 10 km ou plus
pas de nuages en-dessous de 1500 mètres et pas de cumulonimbus.

METAR: ZLXY 041000Z 22002MPS CAVOK 17/04 Q1023 NOSIG

Heure: 19:05 (11:05 UTC)

Prévision

Le bulletin a été fait il y a 7 heures et 56 minutes, à 03:09 UTC
Prévision valable du 04 à 06 UTC au 05 à 06 UTC
Vent 6 kt de sud/sud-est
Visibilité: 3000 m
brume

TAF: ZLXY 040309Z 0406/0506 15003MPS 3000 BR NSC TX18/0408Z TN07/0422Z

Observations et prévisions météorologiques de plus de 4000 aéroports (messages METAR et TAF).

Les stations disponibles sont représentées par des disques jaunes et rouges sur la carte.

Passer la souris dessus pour voir le nom de la station.

Cliquer dessus pour voir les observations et prévisions météorologiques.

Pour changer de carte: cliquez sur les boutons verts avec une croix noire pour zoomer, sur le bouton vert avec un tiret pour effectuer un zoom arrière, ou sur les flèches vertes pour les cartes adjacentes.


METAR-TAF: